createdAt,value
2018-05-15T00:00:47.486Z,15.99
2018-05-15T00:01:47.487Z,15.86
2018-05-15T00:02:47.485Z,15.84
2018-05-15T00:03:47.479Z,15.85
2018-05-15T00:04:47.479Z,15.80
2018-05-15T00:05:47.476Z,15.81
2018-05-15T00:06:47.473Z,15.84
2018-05-15T00:07:47.470Z,15.74
2018-05-15T00:08:47.468Z,15.64
2018-05-15T00:09:47.468Z,15.70
2018-05-15T00:10:47.470Z,15.60
2018-05-15T00:11:47.461Z,15.55
2018-05-15T00:12:47.460Z,15.52
2018-05-15T00:13:47.461Z,15.51
2018-05-15T00:14:47.455Z,15.53
2018-05-15T00:15:47.453Z,15.37
2018-05-15T00:16:47.450Z,15.37
2018-05-15T00:17:47.448Z,15.40
2018-05-15T00:18:47.445Z,15.41
2018-05-15T00:19:47.444Z,15.49
2018-05-15T00:20:47.441Z,15.34
2018-05-15T00:21:47.440Z,15.35
2018-05-15T00:22:47.436Z,15.40
2018-05-15T00:23:47.434Z,15.31
2018-05-15T00:24:47.432Z,15.18
2018-05-15T00:25:47.429Z,15.20
2018-05-15T00:26:47.426Z,15.25
2018-05-15T00:27:47.423Z,15.15
2018-05-15T00:28:47.421Z,15.16
2018-05-15T00:29:47.418Z,15.16
2018-05-15T00:30:47.416Z,15.16
2018-05-15T00:31:47.416Z,15.20
2018-05-15T00:32:47.411Z,15.15
2018-05-15T00:33:47.408Z,15.12
2018-05-15T00:34:47.406Z,15.11
2018-05-15T00:35:47.404Z,15.13
2018-05-15T00:36:47.401Z,15.18
2018-05-15T00:37:47.399Z,15.04
2018-05-15T00:38:47.395Z,15.05
2018-05-15T00:39:47.393Z,15.00
2018-05-15T00:40:47.390Z,14.95
2018-05-15T00:41:47.396Z,14.94
2018-05-15T00:42:47.384Z,14.87
2018-05-15T00:43:47.382Z,14.87
2018-05-15T00:44:47.379Z,14.79
2018-05-15T00:45:47.377Z,14.87
2018-05-15T00:46:47.373Z,14.86
2018-05-15T00:47:47.371Z,14.90
2018-05-15T00:48:47.368Z,14.87
2018-05-15T00:49:47.370Z,14.91
2018-05-15T00:50:47.366Z,14.86
2018-05-15T00:51:47.364Z,14.75
2018-05-15T00:52:47.364Z,14.75
2018-05-15T00:53:47.354Z,14.82
2018-05-15T00:54:47.350Z,14.74
2018-05-15T00:55:47.349Z,14.78
2018-05-15T00:56:47.345Z,14.69
2018-05-15T00:57:47.349Z,14.75
2018-05-15T00:58:47.344Z,14.72
2018-05-15T00:59:47.343Z,14.67
2018-05-15T01:00:47.338Z,14.71
2018-05-15T01:01:47.332Z,14.67
2018-05-15T01:02:47.329Z,14.78
2018-05-15T01:03:47.332Z,14.67
2018-05-15T01:04:47.327Z,14.66
2018-05-15T01:05:47.320Z,14.67
2018-05-15T01:06:47.319Z,14.57
2018-05-15T01:07:47.313Z,14.54
2018-05-15T01:08:47.315Z,14.63
2018-05-15T01:09:47.313Z,14.53
2018-05-15T01:10:47.308Z,14.59
2018-05-15T01:11:47.306Z,14.59
2018-05-15T01:12:47.303Z,14.59
2018-05-15T01:13:47.300Z,14.49
2018-05-15T01:14:47.292Z,14.54
2018-05-15T01:15:47.293Z,14.49
2018-05-15T01:16:47.287Z,14.48
2018-05-15T01:17:47.290Z,14.48
2018-05-15T01:18:47.286Z,14.53
2018-05-15T01:19:47.278Z,14.46
2018-05-15T01:20:47.279Z,14.49
2018-05-15T01:21:47.278Z,14.45
2018-05-15T01:22:47.273Z,14.53
2018-05-15T01:23:47.269Z,14.44
2018-05-15T01:24:47.267Z,14.39
2018-05-15T01:25:47.261Z,14.35
2018-05-15T01:26:47.256Z,14.41
2018-05-15T01:27:47.253Z,14.36
2018-05-15T01:28:47.250Z,14.29
2018-05-15T01:29:47.254Z,14.35
2018-05-15T01:30:47.248Z,14.29
2018-05-15T01:31:47.246Z,14.31
2018-05-15T01:32:47.244Z,14.29
2018-05-15T01:33:47.236Z,14.26
2018-05-15T01:34:47.230Z,14.24
2018-05-15T01:35:47.234Z,14.20
2018-05-15T01:36:47.229Z,14.27
2018-05-15T01:37:47.222Z,14.23
2018-05-15T01:38:47.218Z,14.17
2018-05-15T01:39:47.215Z,14.17
2018-05-15T01:40:47.212Z,14.21
2018-05-15T01:41:47.215Z,14.16
2018-05-15T01:42:47.214Z,14.13
2018-05-15T01:43:47.208Z,14.16
2018-05-15T01:44:47.204Z,14.19
2018-05-15T01:45:47.196Z,14.12
2018-05-15T01:46:47.194Z,14.19
2018-05-15T01:47:47.190Z,14.23
2018-05-15T01:48:47.186Z,14.16
2018-05-15T01:49:47.188Z,14.11
2018-05-15T01:50:47.185Z,14.12
2018-05-15T01:51:47.177Z,14.09
2018-05-15T01:52:47.174Z,14.04
2018-05-15T01:53:47.221Z,14.06
2018-05-15T01:54:47.171Z,13.93
2018-05-15T01:55:47.170Z,14.04
2018-05-15T01:56:47.163Z,13.94
2018-05-15T01:57:47.156Z,13.94
2018-05-15T01:58:47.152Z,13.91
2018-05-15T01:59:47.148Z,13.88
2018-05-15T02:00:47.145Z,13.94
2018-05-15T02:01:47.146Z,13.84
2018-05-15T02:02:47.142Z,13.93
2018-05-15T02:03:47.140Z,13.90
2018-05-15T02:04:47.137Z,13.94
2018-05-15T02:05:47.128Z,13.98
2018-05-15T02:06:47.125Z,13.87
2018-05-15T02:07:47.127Z,13.90
2018-05-15T02:08:47.124Z,13.91
2018-05-15T02:09:47.114Z,13.96
2018-05-15T02:10:47.111Z,13.96
2018-05-15T02:11:47.107Z,14.02
2018-05-15T02:12:47.104Z,14.01
2018-05-15T02:13:47.105Z,13.98
2018-05-15T02:14:47.101Z,13.98
2018-05-15T02:15:47.099Z,13.96
2018-05-15T02:16:47.094Z,14.05
2018-05-15T02:17:47.087Z,13.99
2018-05-15T02:18:47.082Z,13.98
2018-05-15T02:19:47.084Z,14.06
2018-05-15T02:20:47.077Z,13.93
2018-05-15T02:21:47.081Z,13.98
2018-05-15T02:22:47.073Z,14.06
2018-05-15T02:23:47.065Z,13.94
2018-05-15T02:24:47.062Z,13.96
2018-05-15T02:25:47.063Z,13.96
2018-05-15T02:26:47.059Z,13.93
2018-05-15T02:27:47.057Z,13.96
2018-05-15T02:28:47.052Z,13.98
2018-05-15T02:29:47.045Z,13.88
2018-05-15T02:30:47.041Z,13.87
2018-05-15T02:31:47.037Z,13.84
2018-05-15T02:32:47.035Z,13.76
2018-05-15T02:33:47.035Z,13.80
2018-05-15T02:34:47.031Z,13.81
2018-05-15T02:35:47.031Z,13.75
2018-05-15T02:36:47.029Z,13.83
2018-05-15T02:37:47.016Z,13.81
2018-05-15T02:38:47.019Z,13.84
2018-05-15T02:39:47.018Z,13.96
2018-05-15T02:40:47.011Z,13.96
2018-05-15T02:41:47.003Z,13.98
2018-05-15T02:42:46.997Z,13.93
2018-05-15T02:43:46.994Z,13.98
2018-05-15T02:44:46.990Z,13.96
2018-05-15T02:45:46.997Z,13.98
2018-05-15T02:46:46.987Z,14.04
2018-05-15T02:47:46.985Z,14.02
2018-05-15T02:48:46.981Z,13.99
2018-05-15T02:49:46.985Z,13.99
2018-05-15T02:50:46.969Z,13.98
2018-05-15T02:51:46.965Z,13.98
2018-05-15T02:52:46.961Z,13.90
2018-05-15T02:53:46.964Z,13.90
2018-05-15T02:54:46.959Z,13.98
2018-05-15T02:55:46.953Z,13.93
2018-05-15T02:56:46.947Z,13.86
2018-05-15T02:57:46.944Z,13.81
2018-05-15T02:58:46.947Z,13.86
2018-05-15T02:59:46.942Z,13.79
2018-05-15T03:00:46.936Z,13.63
2018-05-15T03:01:46.929Z,13.59
2018-05-15T03:02:46.924Z,13.71
2018-05-15T03:03:46.920Z,13.62
2018-05-15T03:04:46.918Z,13.47
2018-05-15T03:05:46.919Z,13.51
2018-05-15T03:06:46.914Z,13.51
2018-05-15T03:07:46.909Z,13.44
2018-05-15T03:08:46.907Z,13.46
2018-05-15T03:09:46.898Z,13.39
2018-05-15T03:10:46.893Z,13.47
2018-05-15T03:11:46.967Z,13.44
2018-05-15T03:12:46.890Z,13.47
2018-05-15T03:13:46.882Z,13.32
2018-05-15T03:14:46.878Z,13.39
2018-05-15T03:15:46.875Z,13.36
2018-05-15T03:16:46.871Z,13.29
2018-05-15T03:17:46.873Z,13.29
2018-05-15T03:18:46.867Z,13.35
2018-05-15T03:19:46.865Z,13.31
2018-05-15T03:20:46.862Z,13.39
2018-05-15T03:21:46.853Z,13.25
2018-05-15T03:22:46.849Z,13.14
2018-05-15T03:23:46.844Z,13.21
2018-05-15T03:24:46.840Z,13.16
2018-05-15T03:25:46.842Z,13.16
2018-05-15T03:26:46.836Z,13.16
2018-05-15T03:27:46.829Z,13.19
2018-05-15T03:28:46.825Z,13.21
2018-05-15T03:29:46.825Z,13.17
2018-05-15T03:30:46.821Z,13.14
2018-05-15T03:31:46.819Z,13.16
2018-05-15T03:32:46.814Z,13.17
2018-05-15T03:33:46.805Z,13.12
2018-05-15T03:34:46.805Z,13.14
2018-05-15T03:35:46.798Z,13.14
2018-05-15T03:36:46.794Z,13.14
2018-05-15T03:37:46.794Z,13.17
2018-05-15T03:38:46.790Z,13.19
2018-05-15T03:39:46.786Z,13.13
2018-05-15T03:40:46.781Z,13.10
2018-05-15T03:41:46.774Z,13.10
2018-05-15T03:42:46.769Z,13.10
2018-05-15T03:43:46.769Z,13.10
2018-05-15T03:44:46.765Z,13.07
2018-05-15T03:45:46.757Z,13.03
2018-05-15T03:46:46.754Z,12.94
2018-05-15T03:47:46.748Z,12.95
2018-05-15T03:48:46.745Z,12.88
2018-05-15T03:49:46.747Z,12.88
2018-05-15T03:50:46.741Z,12.89
2018-05-15T03:51:46.738Z,12.88
2018-05-15T03:52:46.735Z,12.94
2018-05-15T03:53:46.725Z,12.79
2018-05-15T03:54:46.721Z,12.88
2018-05-15T03:55:46.719Z,12.76
2018-05-15T03:56:46.712Z,12.77
2018-05-15T03:57:46.718Z,12.81
2018-05-15T03:58:46.707Z,12.79
2018-05-15T03:59:46.700Z,12.73
2018-05-15T04:00:46.696Z,12.71
2018-05-15T04:01:46.697Z,12.80
2018-05-15T04:02:46.691Z,12.74
2018-05-15T04:03:46.696Z,12.71
2018-05-15T04:04:46.684Z,12.76
2018-05-15T04:05:46.675Z,12.70
2018-05-15T04:06:46.672Z,12.74
2018-05-15T04:07:46.666Z,12.74
2018-05-15T04:08:46.684Z,12.74
2018-05-15T04:09:46.663Z,12.77
2018-05-15T04:10:46.730Z,12.74
2018-05-15T04:11:46.657Z,12.80
2018-05-15T04:12:46.652Z,12.77
2018-05-15T04:13:46.643Z,12.88
2018-05-15T04:14:46.639Z,12.87
2018-05-15T04:15:46.640Z,12.79
2018-05-15T04:16:46.636Z,12.73
2018-05-15T04:17:46.627Z,12.80
2018-05-15T04:18:46.622Z,12.85
2018-05-15T04:19:46.620Z,12.77
2018-05-15T04:20:46.614Z,12.79
2018-05-15T04:21:46.614Z,12.85
2018-05-15T04:22:46.613Z,12.91
2018-05-15T04:23:46.611Z,12.94
2018-05-15T04:24:46.602Z,12.85
2018-05-15T04:25:46.594Z,12.95
2018-05-15T04:26:46.593Z,12.94
2018-05-15T04:27:46.586Z,12.96
2018-05-15T04:28:46.582Z,13.01
2018-05-15T04:29:46.584Z,13.04
2018-05-15T04:30:46.578Z,13.09
2018-05-15T04:31:46.570Z,13.13
2018-05-15T04:32:46.569Z,13.14
2018-05-15T04:33:46.570Z,13.06
2018-05-15T04:34:46.562Z,13.13
2018-05-15T04:35:46.557Z,13.21
2018-05-15T04:36:46.555Z,13.27
2018-05-15T04:37:46.547Z,13.27
2018-05-15T04:38:46.541Z,13.28
2018-05-15T04:39:46.539Z,13.46
2018-05-15T04:40:46.537Z,13.50
2018-05-15T04:41:46.535Z,13.65
2018-05-15T04:42:46.532Z,13.76
2018-05-15T04:43:46.617Z,13.90
2018-05-15T04:44:46.525Z,14.02
2018-05-15T04:45:46.518Z,14.08
2018-05-15T04:46:46.514Z,14.20
2018-05-15T04:47:46.516Z,14.29
2018-05-15T04:48:46.512Z,14.45
2018-05-15T04:49:46.505Z,14.61
2018-05-15T04:50:46.505Z,14.85
2018-05-15T04:51:46.499Z,15.00
2018-05-15T04:52:46.497Z,15.30
2018-05-15T04:53:46.503Z,15.55
2018-05-15T04:54:46.498Z,15.77
2018-05-15T04:55:46.579Z,16.10
2018-05-15T04:56:46.496Z,16.70
2018-05-15T04:57:46.490Z,17.02
2018-05-15T04:58:46.493Z,17.47
2018-05-15T04:59:46.488Z,17.95
2018-05-15T05:00:46.488Z,18.46
2018-05-15T05:01:46.493Z,18.93
2018-05-15T05:02:46.492Z,19.34
2018-05-15T05:03:46.487Z,19.76
2018-05-15T05:04:46.486Z,20.25
2018-05-15T05:05:46.493Z,20.75
2018-05-15T05:06:46.495Z,21.06
2018-05-15T05:07:46.495Z,21.55
2018-05-15T05:08:46.495Z,21.86
2018-05-15T05:09:46.490Z,22.27
2018-05-15T05:10:46.491Z,22.63
2018-05-15T05:11:46.525Z,22.84
2018-05-15T05:12:46.496Z,23.21
2018-05-15T05:13:46.502Z,23.72
2018-05-15T05:14:46.505Z,24.11
2018-05-15T05:15:46.504Z,24.49
2018-05-15T05:16:46.507Z,24.86
2018-05-15T05:17:46.505Z,25.07
2018-05-15T05:18:46.507Z,24.92
2018-05-15T05:19:46.513Z,24.94
2018-05-15T05:20:46.517Z,25.16
2018-05-15T05:21:46.516Z,25.41
2018-05-15T05:22:46.524Z,25.31
2018-05-15T05:23:46.522Z,25.53
2018-05-15T05:24:46.527Z,25.81
2018-05-15T05:25:46.535Z,25.91
2018-05-15T05:26:46.536Z,26.20
2018-05-15T05:27:46.543Z,26.41
2018-05-15T05:28:46.545Z,26.47
2018-05-15T05:29:46.545Z,26.69
2018-05-15T05:30:46.547Z,26.61
2018-05-15T05:31:46.552Z,26.79
2018-05-15T05:32:46.557Z,27.11
2018-05-15T05:33:46.568Z,27.13
2018-05-15T05:34:46.570Z,26.66
2018-05-15T05:35:46.572Z,26.29
2018-05-15T05:36:46.575Z,26.39
2018-05-15T05:37:46.584Z,26.41
2018-05-15T05:38:46.590Z,26.86
2018-05-15T05:39:46.595Z,26.72
2018-05-15T05:40:46.599Z,26.61
2018-05-15T05:41:46.601Z,26.65
2018-05-15T05:42:46.605Z,27.01
2018-05-15T05:43:46.610Z,27.02
2018-05-15T05:44:46.616Z,27.43
2018-05-15T05:45:46.627Z,27.83
2018-05-15T05:46:46.632Z,27.99
2018-05-15T05:47:46.636Z,28.08
2018-05-15T05:48:46.642Z,27.99
2018-05-15T05:49:46.644Z,28.24
2018-05-15T05:50:46.648Z,28.08
2018-05-15T05:51:46.660Z,28.28
2018-05-15T05:52:46.665Z,28.55
2018-05-15T05:53:46.667Z,28.65
2018-05-15T05:54:46.677Z,28.46
2018-05-15T05:55:46.679Z,27.98
2018-05-15T05:56:46.685Z,27.99
2018-05-15T05:57:46.696Z,27.46
2018-05-15T05:58:46.703Z,27.52
2018-05-15T05:59:46.709Z,27.93
2018-05-15T06:00:46.717Z,28.45
2018-05-15T06:01:46.720Z,28.73
2018-05-15T06:02:46.724Z,28.51
2018-05-15T06:03:46.731Z,28.79
2018-05-15T06:04:46.738Z,28.69
2018-05-15T06:05:46.753Z,28.95
2018-05-15T06:06:46.756Z,29.33
2018-05-15T06:07:46.759Z,28.80
2018-05-15T06:08:46.767Z,29.20
2018-05-15T06:09:46.778Z,28.76
2018-05-15T06:10:46.785Z,28.77
2018-05-15T06:11:46.795Z,27.91
2018-05-15T06:12:46.800Z,28.15
2018-05-15T06:13:46.804Z,28.73
2018-05-15T06:14:46.811Z,28.95
2018-05-15T06:15:46.820Z,28.87
2018-05-15T06:16:46.826Z,29.26
2018-05-15T06:17:46.838Z,29.25
2018-05-15T06:18:46.846Z,29.36
2018-05-15T06:19:46.856Z,29.58
2018-05-15T06:20:46.970Z,29.88
2018-05-15T06:21:46.867Z,30.34
2018-05-15T06:22:46.878Z,30.42
2018-05-15T06:23:46.887Z,30.10
2018-05-15T06:24:46.896Z,30.16
2018-05-15T06:25:46.903Z,29.88
2018-05-15T06:26:46.907Z,30.23
2018-05-15T06:27:46.916Z,30.03
2018-05-15T06:28:46.925Z,30.00
2018-05-15T06:29:46.943Z,29.73
2018-05-15T06:30:46.946Z,30.00
2018-05-15T06:31:46.954Z,30.40
2018-05-15T06:32:46.964Z,30.68
2018-05-15T06:33:46.972Z,31.19
2018-05-15T06:34:46.977Z,31.05
2018-05-15T06:35:46.986Z,30.76
2018-05-15T06:36:46.996Z,31.09
2018-05-15T06:37:47.011Z,31.50
2018-05-15T06:38:47.020Z,30.79
2018-05-15T06:39:47.025Z,30.61
2018-05-15T06:40:47.035Z,31.25
2018-05-15T06:41:47.050Z,31.62
2018-05-15T06:42:47.059Z,30.68
2018-05-15T06:43:47.068Z,30.66
2018-05-15T06:44:47.164Z,30.81
2018-05-15T06:45:47.084Z,30.78
2018-05-15T06:46:47.097Z,30.61
2018-05-15T06:47:47.103Z,31.00
2018-05-15T06:48:47.115Z,30.76
2018-05-15T06:49:47.128Z,30.79
2018-05-15T06:50:47.138Z,31.01
2018-05-15T06:51:47.149Z,30.73
2018-05-15T06:52:47.161Z,31.19
2018-05-15T06:53:47.166Z,31.34
2018-05-15T06:54:47.176Z,31.28
2018-05-15T06:55:47.192Z,30.90
2018-05-15T06:56:47.202Z,30.38
2018-05-15T06:57:47.209Z,30.79
2018-05-15T06:58:47.219Z,29.92
2018-05-15T06:59:47.280Z,29.82
2018-05-15T07:00:47.241Z,30.36
2018-05-15T07:01:47.268Z,30.10
2018-05-15T07:02:47.266Z,29.62
2018-05-15T07:03:47.277Z,29.70
2018-05-15T07:04:47.290Z,30.48
2018-05-15T07:05:47.296Z,30.93
2018-05-15T07:06:47.307Z,31.34
2018-05-15T07:07:47.408Z,30.01
2018-05-15T07:08:47.328Z,29.92
2018-05-15T07:09:47.351Z,30.57
2018-05-15T07:10:47.356Z,29.92
2018-05-15T07:11:47.363Z,30.29
2018-05-15T07:12:47.374Z,29.91
2018-05-15T07:13:47.392Z,29.78
2018-05-15T07:14:47.402Z,29.86
2018-05-15T07:15:47.413Z,30.44
2018-05-15T07:16:47.424Z,30.30
2018-05-15T07:17:47.431Z,30.70
2018-05-15T07:18:47.441Z,31.01
2018-05-15T07:19:47.453Z,30.91
2018-05-15T07:20:47.466Z,30.82
2018-05-15T07:21:47.483Z,30.53
2018-05-15T07:22:47.494Z,30.82
2018-05-15T07:23:47.507Z,30.83
2018-05-15T07:24:47.516Z,31.09
2018-05-15T07:25:47.525Z,31.15
2018-05-15T07:26:47.535Z,31.76
2018-05-15T07:27:47.552Z,30.78
2018-05-15T07:28:47.564Z,30.53
2018-05-15T07:29:47.572Z,30.36
2018-05-15T07:30:47.584Z,29.66
2018-05-15T07:31:47.597Z,30.36
2018-05-15T07:32:47.610Z,30.68
2018-05-15T07:33:47.627Z,30.76
2018-05-15T07:34:47.645Z,30.63
2018-05-15T07:35:47.653Z,30.93
2018-05-15T07:36:47.663Z,31.01
2018-05-15T07:37:47.671Z,31.34
2018-05-15T07:38:47.683Z,32.02
2018-05-15T07:39:47.698Z,30.85
2018-05-15T07:40:47.709Z,30.76
2018-05-15T07:41:47.726Z,29.92
2018-05-15T07:42:47.739Z,29.57
2018-05-15T07:43:47.746Z,29.47
2018-05-15T07:44:47.760Z,29.81
2018-05-15T07:45:47.779Z,30.86
2018-05-15T07:46:47.789Z,31.94
2018-05-15T07:47:47.805Z,32.78
2018-05-15T07:48:47.822Z,32.93
2018-05-15T07:49:47.825Z,33.49
2018-05-15T07:50:47.837Z,33.59
2018-05-15T07:51:47.852Z,34.06
2018-05-15T07:52:47.866Z,34.21
2018-05-15T07:53:47.884Z,32.99
2018-05-15T07:54:47.897Z,33.05
2018-05-15T07:55:47.910Z,32.25
2018-05-15T07:56:47.924Z,32.66
2018-05-15T07:57:47.934Z,33.56
2018-05-15T07:58:47.948Z,32.54
2018-05-15T07:59:47.969Z,31.82
2018-05-15T08:00:47.981Z,32.68
2018-05-15T08:01:47.991Z,33.60
2018-05-15T08:02:48.004Z,34.34
2018-05-15T08:03:48.020Z,34.65
2018-05-15T08:04:48.034Z,33.96
2018-05-15T08:05:48.055Z,33.68
2018-05-15T08:06:48.067Z,34.06
2018-05-15T08:07:48.083Z,33.07
2018-05-15T08:08:48.099Z,33.37
2018-05-15T08:09:48.109Z,33.22
2018-05-15T08:10:48.123Z,33.07
2018-05-15T08:11:48.139Z,32.40
2018-05-15T08:12:48.154Z,32.10
2018-05-15T08:13:48.173Z,31.76
2018-05-15T08:14:48.188Z,32.16
2018-05-15T08:15:48.202Z,32.40
2018-05-15T08:16:48.216Z,31.53
2018-05-15T08:17:48.237Z,31.98
2018-05-15T08:18:48.251Z,33.11
2018-05-15T08:19:48.267Z,34.16
2018-05-15T08:20:48.280Z,33.77
2018-05-15T08:21:48.292Z,34.30
2018-05-15T08:22:48.307Z,34.60
2018-05-15T08:23:48.322Z,35.22
2018-05-15T08:24:48.338Z,35.76
2018-05-15T08:25:48.358Z,34.95
2018-05-15T08:26:48.375Z,34.71
2018-05-15T08:27:48.390Z,34.76
2018-05-15T08:28:48.412Z,35.06
2018-05-15T08:29:48.419Z,35.65
2018-05-15T08:30:48.506Z,36.33
2018-05-15T08:31:48.455Z,35.91
2018-05-15T08:32:48.473Z,35.42
2018-05-15T08:33:48.484Z,35.52
2018-05-15T08:34:48.500Z,35.07
2018-05-15T08:35:48.517Z,34.95
2018-05-15T08:36:48.534Z,35.21
2018-05-15T08:37:48.560Z,35.25
2018-05-15T08:38:48.572Z,35.59
2018-05-15T08:39:48.589Z,35.81
2018-05-15T08:40:48.606Z,35.52
2018-05-15T08:41:48.619Z,35.61
2018-05-15T08:42:48.640Z,35.55
2018-05-15T08:43:48.654Z,35.59
2018-05-15T08:44:48.671Z,35.61
2018-05-15T08:45:48.693Z,35.68
2018-05-15T08:46:48.710Z,35.78
2018-05-15T08:47:48.722Z,35.02
2018-05-15T08:48:48.739Z,35.55
2018-05-15T08:49:48.762Z,36.05
2018-05-15T08:50:48.781Z,36.94
2018-05-15T08:51:48.796Z,36.49
2018-05-15T08:52:48.812Z,36.77
2018-05-15T08:53:48.826Z,36.77
2018-05-15T08:54:48.842Z,36.93
2018-05-15T08:55:48.861Z,37.35
2018-05-15T08:56:48.881Z,36.27
2018-05-15T08:57:48.906Z,35.95
2018-05-15T08:58:48.924Z,36.25
2018-05-15T08:59:48.937Z,35.91
2018-05-15T09:00:48.958Z,35.77
2018-05-15T09:01:48.967Z,35.47
2018-05-15T09:02:48.984Z,35.73
2018-05-15T09:03:49.008Z,36.18
2018-05-15T09:04:49.029Z,35.74
2018-05-15T09:05:49.042Z,35.80
2018-05-15T09:06:49.056Z,36.71
2018-05-15T09:07:49.073Z,36.08
2018-05-15T09:08:49.092Z,36.77
2018-05-15T09:09:49.116Z,36.52
2018-05-15T09:10:49.134Z,33.35
2018-05-15T09:11:49.150Z,34.09
2018-05-15T09:12:49.179Z,35.28
2018-05-15T09:13:49.182Z,35.44
2018-05-15T09:14:49.199Z,35.24
2018-05-15T09:15:49.218Z,34.03
2018-05-15T09:16:49.237Z,33.86
2018-05-15T09:17:49.259Z,33.38
2018-05-15T09:18:49.277Z,32.10
2018-05-15T09:19:49.288Z,32.46
2018-05-15T09:20:49.307Z,31.28
2018-05-15T09:21:49.330Z,31.90
2018-05-15T09:22:49.347Z,31.60
2018-05-15T09:23:49.365Z,31.75
2018-05-15T09:24:49.380Z,32.32
2018-05-15T09:25:49.393Z,32.62
2018-05-15T09:26:49.410Z,33.09
2018-05-15T09:27:49.426Z,33.82
2018-05-15T09:28:49.444Z,33.89
2018-05-15T09:29:49.466Z,34.26
2018-05-15T09:30:49.482Z,33.65
2018-05-15T09:31:49.498Z,33.40
2018-05-15T09:32:49.515Z,33.71
2018-05-15T09:33:49.527Z,34.45
2018-05-15T09:34:49.543Z,33.74
2018-05-15T09:35:49.565Z,33.56
2018-05-15T09:36:49.581Z,33.74
2018-05-15T09:37:49.595Z,34.28
2018-05-15T09:38:49.611Z,34.81
2018-05-15T09:39:49.632Z,34.90
2018-05-15T09:40:49.645Z,35.49
2018-05-15T09:41:49.667Z,35.99
2018-05-15T09:42:49.683Z,35.87
2018-05-15T09:43:49.701Z,35.81
2018-05-15T09:44:49.717Z,34.71
2018-05-15T09:45:49.729Z,34.99
2018-05-15T09:46:49.788Z,35.34
2018-05-15T09:47:49.763Z,35.39
2018-05-15T09:48:49.780Z,35.22
2018-05-15T09:49:49.802Z,34.84
2018-05-15T09:50:49.819Z,34.67
2018-05-15T09:51:49.833Z,33.79
2018-05-15T09:52:49.851Z,33.72
2018-05-15T09:53:49.872Z,33.99
2018-05-15T09:54:49.889Z,35.03
2018-05-15T09:55:49.907Z,35.64
2018-05-15T09:56:49.924Z,35.27
2018-05-15T09:57:49.937Z,35.47
2018-05-15T09:58:49.954Z,35.77
2018-05-15T09:59:49.972Z,34.90
2018-05-15T10:00:49.991Z,35.02
2018-05-15T10:01:50.012Z,34.36
2018-05-15T10:02:50.080Z,33.92
2018-05-15T10:03:50.050Z,34.45
2018-05-15T10:04:50.063Z,33.86
2018-05-15T10:05:50.077Z,34.00
2018-05-15T10:06:50.094Z,34.76
2018-05-15T10:07:50.174Z,34.98
2018-05-15T10:08:50.135Z,35.12
2018-05-15T10:09:50.146Z,34.64
2018-05-15T10:10:50.163Z,34.55
2018-05-15T10:11:50.184Z,35.12
2018-05-15T10:12:50.198Z,34.76
2018-05-15T10:13:50.222Z,34.84
2018-05-15T10:14:50.239Z,35.03
2018-05-15T10:15:50.254Z,32.76
2018-05-15T10:16:50.274Z,31.15
2018-05-15T10:17:50.285Z,30.38
2018-05-15T10:18:50.302Z,30.61
2018-05-15T10:19:50.397Z,31.04
2018-05-15T10:20:50.337Z,31.82
2018-05-15T10:21:50.357Z,32.19
2018-05-15T10:22:50.373Z,32.35
2018-05-15T10:23:50.386Z,32.25
2018-05-15T10:24:50.403Z,32.77
2018-05-15T10:25:50.423Z,33.33
2018-05-15T10:26:50.439Z,33.97
2018-05-15T10:27:50.457Z,33.33
2018-05-15T10:28:50.473Z,32.05
2018-05-15T10:29:50.498Z,31.09
2018-05-15T10:30:50.506Z,30.81
2018-05-15T10:31:50.518Z,30.44
2018-05-15T10:32:50.533Z,30.32
2018-05-15T10:33:50.554Z,31.03
2018-05-15T10:34:50.568Z,30.79
2018-05-15T10:35:50.589Z,30.85
2018-05-15T10:36:50.600Z,30.70
2018-05-15T10:37:50.612Z,30.54
2018-05-15T10:38:50.626Z,30.70
2018-05-15T10:39:50.648Z,31.62
2018-05-15T10:40:50.667Z,31.85
2018-05-15T10:41:50.674Z,32.54
2018-05-15T10:42:50.688Z,32.99
2018-05-15T10:43:50.761Z,33.63
2018-05-15T10:44:50.721Z,33.17
2018-05-15T10:45:50.740Z,32.58
2018-05-15T10:46:50.754Z,31.90
2018-05-15T10:47:50.770Z,30.67
2018-05-15T10:48:50.786Z,30.40
2018-05-15T10:49:50.796Z,30.44
2018-05-15T10:50:50.838Z,31.34
2018-05-15T10:51:50.826Z,32.09
2018-05-15T10:52:50.841Z,31.62
2018-05-15T10:53:50.861Z,32.49
2018-05-15T10:54:50.875Z,32.25
2018-05-15T10:55:50.886Z,31.37
2018-05-15T10:56:50.903Z,31.69
2018-05-15T10:57:50.921Z,31.65
2018-05-15T10:58:50.935Z,32.07
2018-05-15T10:59:50.952Z,32.36
2018-05-15T11:00:50.966Z,31.71
2018-05-15T11:01:50.976Z,31.31
2018-05-15T11:02:50.990Z,31.72
2018-05-15T11:03:51.005Z,31.90
2018-05-15T11:04:51.020Z,32.10
2018-05-15T11:05:51.044Z,32.03
2018-05-15T11:06:51.053Z,32.22
2018-05-15T11:07:51.068Z,32.14
2018-05-15T11:08:51.082Z,31.79
2018-05-15T11:09:51.093Z,31.64
2018-05-15T11:10:51.106Z,31.91
2018-05-15T11:11:51.125Z,31.60
2018-05-15T11:12:51.250Z,31.56
2018-05-15T11:13:51.150Z,29.85
2018-05-15T11:14:51.162Z,29.30
2018-05-15T11:15:51.178Z,28.98
2018-05-15T11:16:51.191Z,28.48
2018-05-15T11:17:51.210Z,28.39
2018-05-15T11:18:51.222Z,28.77
2018-05-15T11:19:51.237Z,28.94
2018-05-15T11:20:51.252Z,29.18
2018-05-15T11:21:51.261Z,29.26
2018-05-15T11:22:51.268Z,28.95
2018-05-15T11:23:51.286Z,28.97
2018-05-15T11:24:51.292Z,29.05
2018-05-15T11:25:51.311Z,28.57
2018-05-15T11:26:51.319Z,28.33
2018-05-15T11:27:51.327Z,28.32
2018-05-15T11:28:51.341Z,28.50
2018-05-15T11:29:51.352Z,28.79
2018-05-15T11:30:51.361Z,28.98
2018-05-15T11:31:51.377Z,28.98
2018-05-15T11:32:51.382Z,28.61
2018-05-15T11:33:51.388Z,27.86
2018-05-15T11:34:51.401Z,27.91
2018-05-15T11:35:51.436Z,27.46
2018-05-15T11:36:51.416Z,26.84
2018-05-15T11:37:51.430Z,27.08
2018-05-15T11:38:51.436Z,27.16
2018-05-15T11:39:51.447Z,27.28
2018-05-15T11:40:51.455Z,27.18
2018-05-15T11:41:51.510Z,27.08
2018-05-15T11:42:51.466Z,27.12
2018-05-15T11:43:51.479Z,27.09
2018-05-15T11:44:51.495Z,27.30
2018-05-15T11:45:51.489Z,27.39
2018-05-15T11:46:51.496Z,27.59
2018-05-15T11:47:51.847Z,27.63
2018-05-15T11:48:51.947Z,27.43
2018-05-15T11:49:52.024Z,27.39
2018-05-15T11:50:52.384Z,27.38
2018-05-15T11:51:52.584Z,27.48
2018-05-15T11:52:52.584Z,27.66
2018-05-15T11:53:51.634Z,27.63
2018-05-15T11:54:51.554Z,27.76
2018-05-15T11:55:51.584Z,27.35
2018-05-15T11:56:51.570Z,27.20
2018-05-15T11:57:51.730Z,27.06
2018-05-15T11:58:51.587Z,27.05
2018-05-15T11:59:51.641Z,27.05
2018-05-15T12:00:51.597Z,27.08
2018-05-15T12:01:51.607Z,27.11
2018-05-15T12:02:51.613Z,26.79
2018-05-15T12:03:51.674Z,26.68
2018-05-15T12:04:51.625Z,26.64
2018-05-15T12:05:51.627Z,26.72
2018-05-15T12:06:51.633Z,26.66
2018-05-15T12:07:51.639Z,26.66
2018-05-15T12:08:51.645Z,26.64
2018-05-15T12:09:51.655Z,26.69
2018-05-15T12:10:51.661Z,26.68
2018-05-15T12:11:51.668Z,26.73
2018-05-15T12:12:51.703Z,26.72
2018-05-15T12:13:51.675Z,26.73
2018-05-15T12:14:51.680Z,26.65
2018-05-15T12:15:51.689Z,26.57
2018-05-15T12:16:51.696Z,26.65
2018-05-15T12:17:51.698Z,26.64
2018-05-15T12:18:51.702Z,26.53
2018-05-15T12:19:51.707Z,26.50
2018-05-15T12:20:51.713Z,26.53
2018-05-15T12:21:51.723Z,26.54
2018-05-15T12:22:51.731Z,26.56
2018-05-15T12:23:51.733Z,26.36
2018-05-15T12:24:51.740Z,26.38
2018-05-15T12:25:51.739Z,26.28
2018-05-15T12:26:51.744Z,26.36
2018-05-15T12:27:51.749Z,26.08
2018-05-15T12:28:51.755Z,26.03
2018-05-15T12:29:51.835Z,26.01
2018-05-15T12:30:51.770Z,25.94
2018-05-15T12:31:51.769Z,25.86
2018-05-15T12:32:51.776Z,25.75
2018-05-15T12:33:51.786Z,25.76
2018-05-15T12:34:51.789Z,25.94
2018-05-15T12:35:51.868Z,26.12
2018-05-15T12:36:51.799Z,26.20
2018-05-15T12:37:51.799Z,26.28
2018-05-15T12:38:51.803Z,26.20
2018-05-15T12:39:51.808Z,25.97
2018-05-15T12:40:51.813Z,26.01
2018-05-15T12:41:51.959Z,26.06
2018-05-15T12:42:51.830Z,26.27
2018-05-15T12:43:51.830Z,26.32
2018-05-15T12:44:51.835Z,26.44
2018-05-15T12:45:51.836Z,26.41
2018-05-15T12:46:51.889Z,26.46
2018-05-15T12:47:51.862Z,26.50
2018-05-15T12:48:51.888Z,26.54
2018-05-15T12:49:51.857Z,26.51
2018-05-15T12:50:51.858Z,26.36
2018-05-15T12:51:51.865Z,26.46
2018-05-15T12:52:51.868Z,26.51